createdAt,value
2023-05-14T00:03:54.135Z,30.54723
2023-05-14T00:08:55.605Z,30.40141
2023-05-14T00:13:57.089Z,30.40427
2023-05-14T00:18:58.521Z,30.90429
2023-05-14T00:23:59.986Z,30.09994
2023-05-14T00:29:01.501Z,30.4586
2023-05-14T00:34:02.994Z,29.56531
2023-05-14T00:39:04.420Z,29.27274
2023-05-14T00:44:05.828Z,27.77241
2023-05-14T00:49:07.208Z,26.41981
2023-05-14T00:54:08.624Z,27.04973
2023-05-14T00:59:10.045Z,27.85468
2023-05-14T01:04:11.476Z,29.05895
2023-05-14T01:09:12.910Z,28.41758
2023-05-14T01:14:14.269Z,26.72191
2023-05-14T01:19:15.757Z,27.93346
2023-05-14T01:24:17.223Z,28.32133
2023-05-14T01:29:18.576Z,28.14661
2023-05-14T01:34:20.090Z,28.0043
2023-05-14T01:39:21.481Z,27.16599
2023-05-14T01:44:22.851Z,26.77464
2023-05-14T01:49:24.237Z,26.85405
2023-05-14T01:54:25.657Z,25.2483
2023-05-14T01:59:27.227Z,24.90937
2023-05-14T02:04:28.670Z,25.28801
2023-05-14T02:09:30.054Z,24.56917
2023-05-14T02:14:31.478Z,24.45195
2023-05-14T02:19:32.885Z,23.72295
2023-05-14T02:24:34.317Z,24.56535
2023-05-14T02:29:35.910Z,23.9345
2023-05-14T02:34:37.375Z,23.69913
2023-05-14T02:39:38.810Z,23.06733
2023-05-14T02:44:40.309Z,23.48471
2023-05-14T02:49:41.692Z,22.19317
2023-05-14T02:54:43.138Z,22.64232
2023-05-14T02:59:44.586Z,22.61183
2023-05-14T03:04:46.598Z,21.77484
2023-05-14T03:09:47.996Z,22.03816
2023-05-14T03:14:49.380Z,21.1834
2023-05-14T03:19:51.006Z,21.20341
2023-05-14T03:24:52.352Z,20.98932
2023-05-14T03:29:53.916Z,20.69106
2023-05-14T03:34:55.393Z,20.11233
2023-05-14T03:39:56.809Z,19.67241
2023-05-14T03:44:58.288Z,19.86299
2023-05-14T03:49:59.717Z,20.33753
2023-05-14T03:55:01.149Z,18.84466
2023-05-14T04:00:02.534Z,18.26467
2023-05-14T04:05:03.955Z,18.91454
2023-05-14T04:10:05.330Z,17.32068
2023-05-14T04:15:06.777Z,17.83174
2023-05-14T04:20:08.366Z,18.40665
2023-05-14T04:25:09.765Z,17.44583
2023-05-14T04:30:11.260Z,17.61989
2023-05-14T04:35:12.828Z,17.93021
2023-05-14T04:40:14.245Z,15.36859
2023-05-14T04:45:15.634Z,16.13881
2023-05-14T04:50:17.053Z,15.95777
2023-05-14T04:55:18.464Z,15.61029
2023-05-14T05:00:20.038Z,16.30366
2023-05-14T05:05:21.532Z,15.39019
2023-05-14T05:10:23.298Z,16.30937
2023-05-14T05:15:26.575Z,16.06258
2023-05-14T05:20:28.361Z,16.23918
2023-05-14T05:25:29.775Z,14.78894
2023-05-14T05:30:31.133Z,15.68144
2023-05-14T05:35:32.509Z,15.63856
2023-05-14T05:40:33.895Z,14.95918
2023-05-14T05:45:35.315Z,14.12671
2023-05-14T05:50:36.705Z,15.2841
2023-05-14T05:55:38.117Z,14.05525
2023-05-14T06:00:39.572Z,14.91948
2023-05-14T06:05:41.010Z,14.22358
2023-05-14T06:10:42.459Z,14.94711
2023-05-14T06:15:43.971Z,14.40621
2023-05-14T06:20:45.381Z,13.40446
2023-05-14T06:25:48.416Z,14.80895
2023-05-14T06:30:51.700Z,14.63172
2023-05-14T06:35:53.158Z,14.96077
2023-05-14T06:40:54.690Z,14.48371
2023-05-14T06:45:56.148Z,14.0597
2023-05-14T06:50:57.569Z,14.37731
2023-05-14T06:55:58.979Z,14.71716
2023-05-14T07:01:00.574Z,14.2401
2023-05-14T07:06:02.099Z,14.94616
2023-05-14T07:11:03.539Z,13.89962
2023-05-14T07:16:05.041Z,14.01841
2023-05-14T07:21:06.658Z,14.50975
2023-05-14T07:26:08.151Z,14.73971
2023-05-14T07:31:09.675Z,13.82371
2023-05-14T07:36:11.217Z,14.5466
2023-05-14T07:41:12.642Z,14.32077
2023-05-14T07:46:14.061Z,14.32141
2023-05-14T07:51:15.487Z,13.15832
2023-05-14T07:56:16.974Z,14.24613
2023-05-14T08:01:18.431Z,13.94504
2023-05-14T08:06:19.895Z,13.70778
2023-05-14T08:11:21.329Z,14.1715
2023-05-14T08:16:22.862Z,12.48022
2023-05-14T08:21:24.285Z,13.01889
2023-05-14T08:26:25.736Z,13.21771
2023-05-14T08:31:27.312Z,13.46068
2023-05-14T08:36:28.952Z,13.17388
2023-05-14T08:41:30.442Z,13.44289
2023-05-14T08:46:31.863Z,13.39144
2023-05-14T08:51:33.325Z,12.73082
2023-05-14T08:56:34.750Z,12.86675
2023-05-14T09:01:36.205Z,12.66253
2023-05-14T09:06:37.770Z,12.90201
2023-05-14T09:11:39.232Z,12.07464
2023-05-14T09:16:40.744Z,12.7486
2023-05-14T09:21:42.189Z,12.94329
2023-05-14T09:26:43.614Z,12.48943
2023-05-14T09:31:45.102Z,11.25236
2023-05-14T09:36:46.736Z,11.56488
2023-05-14T09:41:48.231Z,11.52677
2023-05-14T09:46:49.709Z,12.02478
2023-05-14T09:51:51.149Z,11.98285
2023-05-14T09:56:55.034Z,11.67255
2023-05-14T10:01:57.017Z,10.42438
2023-05-14T10:06:58.423Z,10.67338
2023-05-14T10:11:59.834Z,10.97764
2023-05-14T10:17:01.306Z,10.67179
2023-05-14T10:22:02.835Z,10.79089
2023-05-14T10:27:04.246Z,10.73118
2023-05-14T10:32:05.730Z,11.1304
2023-05-14T10:37:07.200Z,10.60731
2023-05-14T10:42:08.670Z,10.63653
2023-05-14T10:47:10.098Z,10.62605
2023-05-14T10:52:11.526Z,10.2046
2023-05-14T10:57:12.949Z,10.44756
2023-05-14T11:02:14.549Z,10.43232
2023-05-14T11:07:16.102Z,10.21603
2023-05-14T11:12:17.609Z,10.28495
2023-05-14T11:17:19.293Z,9.9448
2023-05-14T11:22:20.785Z,9.9267
2023-05-14T11:27:22.278Z,10.14648
2023-05-14T11:32:23.883Z,10.13473
2023-05-14T11:37:25.409Z,10.23953
2023-05-14T11:42:26.913Z,9.82793
2023-05-14T11:47:28.348Z,9.94067
2023-05-14T11:52:29.743Z,9.24133
2023-05-14T11:57:31.224Z,8.67506
2023-05-14T12:02:32.836Z,9.09174
2023-05-14T12:07:34.424Z,9.46237
2023-05-14T12:12:35.879Z,9.14732
2023-05-14T12:17:37.503Z,9.30199
2023-05-14T12:22:38.913Z,9.34645
2023-05-14T12:27:40.463Z,9.43855
2023-05-14T12:32:42.063Z,8.82496
2023-05-14T12:37:43.461Z,9.11683
2023-05-14T12:42:44.990Z,8.68744
2023-05-14T12:47:46.492Z,8.66331
2023-05-14T12:52:47.915Z,8.85481
2023-05-14T12:57:49.376Z,8.92183
2023-05-14T13:02:50.818Z,7.92649
2023-05-14T13:07:52.278Z,8.9882
2023-05-14T13:12:53.726Z,9.44141
2023-05-14T13:17:55.213Z,9.09396
2023-05-14T13:22:56.622Z,9.80538
2023-05-14T13:27:58.093Z,10.28654
2023-05-14T13:32:59.522Z,10.29289
2023-05-14T13:38:00.999Z,10.50822
2023-05-14T13:43:02.471Z,11.07546
2023-05-14T13:48:03.958Z,11.05799
2023-05-14T13:53:05.447Z,10.52569
2023-05-14T13:58:06.934Z,11.11833
2023-05-14T14:03:08.558Z,10.84107
2023-05-14T14:08:22.776Z,11.86788
2023-05-14T14:13:25.586Z,12.33317
2023-05-14T14:18:27.120Z,12.2471
2023-05-14T14:23:28.615Z,12.19628
2023-05-14T14:28:30.069Z,12.79307
2023-05-14T14:33:31.473Z,13.48164
2023-05-14T14:38:32.887Z,13.44607
2023-05-14T14:43:34.466Z,13.185
2023-05-14T14:48:35.930Z,14.23978
2023-05-14T14:53:37.400Z,14.32967
2023-05-14T14:58:38.808Z,14.86358
2023-05-14T15:03:40.263Z,13.18468
2023-05-14T15:08:41.774Z,14.37604
2023-05-14T15:13:43.165Z,15.50389
2023-05-14T15:18:44.680Z,15.96285
2023-05-14T15:23:46.130Z,15.93141
2023-05-14T15:28:47.508Z,17.77489
2023-05-14T15:33:49.124Z,18.04455
2023-05-14T15:38:50.528Z,17.6075
2023-05-14T15:43:51.887Z,18.05821
2023-05-14T15:48:53.323Z,18.69633
2023-05-14T15:53:54.691Z,17.1533
2023-05-14T15:58:56.121Z,19.06763
2023-05-14T16:03:57.648Z,19.68098
2023-05-14T16:08:59.167Z,19.17118
2023-05-14T16:14:00.650Z,20.27369
2023-05-14T16:19:02.083Z,20.18951
2023-05-14T16:24:03.496Z,19.11306
2023-05-14T16:29:04.945Z,20.88545
2023-05-14T16:34:06.479Z,21.62555
2023-05-14T16:39:08.563Z,21.7958
2023-05-14T16:44:10.133Z,22.67821
2023-05-14T16:49:11.684Z,22.97648
2023-05-14T16:54:13.107Z,23.18168
2023-05-14T16:59:14.796Z,23.36528
2023-05-14T17:04:16.320Z,23.19153
2023-05-14T17:09:17.832Z,23.41833
2023-05-14T17:14:19.212Z,23.9758
2023-05-14T17:19:20.654Z,23.8084
2023-05-14T17:24:22.079Z,24.52088
2023-05-14T17:29:23.475Z,23.71533
2023-05-14T17:34:24.832Z,22.6023
2023-05-14T17:39:26.285Z,23.94022
2023-05-14T17:44:27.669Z,24.16893
2023-05-14T17:49:29.061Z,24.7588
2023-05-14T17:54:30.450Z,24.87347
2023-05-14T17:59:31.835Z,24.99799
2023-05-14T18:04:33.344Z,25.376
2023-05-14T18:09:34.733Z,25.71907
2023-05-14T18:14:36.157Z,26.4484
2023-05-14T18:19:37.730Z,26.15965
2023-05-14T18:24:39.138Z,26.69395
2023-05-14T18:29:40.530Z,27.19204
2023-05-14T18:34:42.130Z,26.81943
2023-05-14T18:39:43.536Z,27.78321
2023-05-14T18:44:44.940Z,28.08181
2023-05-14T18:49:46.318Z,27.60722
2023-05-14T18:54:47.697Z,27.36898
2023-05-14T18:59:49.147Z,27.47126
2023-05-14T19:04:52.764Z,27.59007
2023-05-14T19:09:54.764Z,27.17775
2023-05-14T19:14:56.162Z,27.83753
2023-05-14T19:19:57.636Z,26.93919
2023-05-14T19:24:59.020Z,27.0132
2023-05-14T19:30:00.428Z,27.97666
2023-05-14T19:35:01.829Z,28.14407
2023-05-14T19:40:03.255Z,27.76542
2023-05-14T19:45:04.755Z,27.6104
2023-05-14T19:50:06.510Z,27.65456
2023-05-14T19:55:07.952Z,28.2902
2023-05-14T20:00:09.323Z,29.5113
2023-05-14T20:05:10.822Z,30.38204
2023-05-14T20:10:12.436Z,30.20414
2023-05-14T20:15:13.995Z,30.65905
2023-05-14T20:20:15.377Z,30.84743
2023-05-14T20:25:16.780Z,31.27279
2023-05-14T20:30:18.191Z,31.8068
2023-05-14T20:35:19.569Z,31.83317
2023-05-14T20:40:21.010Z,31.60603
2023-05-14T20:45:22.430Z,32.57781
2023-05-14T20:50:24.043Z,32.19786
2023-05-14T20:55:25.663Z,32.16196
2023-05-14T21:00:27.276Z,31.85731
2023-05-14T21:05:28.805Z,31.87669
2023-05-14T21:10:30.247Z,31.40431
2023-05-14T21:15:31.647Z,32.14894
2023-05-14T21:20:33.096Z,31.85636
2023-05-14T21:25:34.533Z,33.19283
2023-05-14T21:30:35.942Z,31.73278
2023-05-14T21:35:37.357Z,32.29094
2023-05-14T21:40:39.758Z,31.39128
2023-05-14T21:45:41.159Z,30.92335
2023-05-14T21:50:42.530Z,30.57899
2023-05-14T21:55:43.999Z,31.08917
2023-05-14T22:00:45.566Z,30.40173
2023-05-14T22:05:46.964Z,32.8059
2023-05-14T22:10:48.385Z,33.01684
2023-05-14T22:15:51.398Z,33.28719
2023-05-14T22:20:56.912Z,33.34087
2023-05-14T22:25:58.252Z,33.07942
2023-05-14T22:30:59.840Z,32.91613
2023-05-14T22:36:01.360Z,30.83631
2023-05-14T22:41:02.771Z,31.48563
2023-05-14T22:46:04.187Z,31.05169
2023-05-14T22:51:05.627Z,32.87484
2023-05-14T22:56:07.018Z,32.54127
2023-05-14T23:01:08.633Z,29.64473
2023-05-14T23:06:10.073Z,32.23408
2023-05-14T23:11:11.491Z,32.70202
2023-05-14T23:16:12.876Z,32.82782
2023-05-14T23:21:14.335Z,32.93329
2023-05-14T23:26:15.744Z,33.03749
2023-05-14T23:31:17.266Z,32.70329
2023-05-14T23:36:18.721Z,31.73024
2023-05-14T23:41:20.158Z,31.84397
2023-05-14T23:46:21.567Z,31.70102
2023-05-14T23:51:23.091Z,30.38204
2023-05-14T23:56:24.522Z,31.33664
